createdAt,value
2018-10-07T00:00:09.676Z,0
2018-10-07T00:01:10.929Z,0
2018-10-07T00:02:11.945Z,0
2018-10-07T00:03:13.250Z,0
2018-10-07T00:04:14.215Z,0
2018-10-07T00:05:15.675Z,0
2018-10-07T00:06:17.348Z,0
2018-10-07T00:07:18.823Z,0
2018-10-07T00:08:21.060Z,0
2018-10-07T00:09:22.743Z,0
2018-10-07T00:10:25.107Z,0
2018-10-07T00:11:27.128Z,0
2018-10-07T00:12:29.106Z,0
2018-10-07T00:13:30.543Z,0
2018-10-07T00:14:32.239Z,0
2018-10-07T00:15:33.483Z,0
2018-10-07T00:16:35.044Z,0
2018-10-07T00:17:37.096Z,0
2018-10-07T00:18:38.561Z,0
2018-10-07T00:19:40.291Z,0
2018-10-07T00:20:42.091Z,0
2018-10-07T00:21:44.204Z,0
2018-10-07T00:22:46.592Z,0
2018-10-07T00:23:48.656Z,0
2018-10-07T00:24:51.016Z,0
2018-10-07T00:25:53.086Z,0
2018-10-07T00:26:55.125Z,0
2018-10-07T00:27:57.173Z,0
2018-10-07T00:28:59.194Z,0
2018-10-07T00:30:01.885Z,0
2018-10-07T00:31:03.028Z,0
2018-10-07T00:32:05.147Z,0
2018-10-07T00:33:06.948Z,0
2018-10-07T00:34:09.017Z,0
2018-10-07T00:35:11.669Z,0
2018-10-07T00:36:13.590Z,0
2018-10-07T00:37:16.090Z,0
2018-10-07T00:38:18.028Z,0
2018-10-07T00:39:20.294Z,0
2018-10-07T00:40:21.243Z,0
2018-10-07T00:41:22.884Z,0
2018-10-07T00:42:23.796Z,0
2018-10-07T00:43:25.295Z,0
2018-10-07T00:44:26.021Z,0
2018-10-07T00:45:26.755Z,0
2018-10-07T00:46:27.525Z,0
2018-10-07T00:47:28.242Z,0
2018-10-07T00:48:28.969Z,0
2018-10-07T00:49:29.936Z,0
2018-10-07T00:50:30.665Z,0
2018-10-07T00:51:31.386Z,0
2018-10-07T00:52:32.118Z,0
2018-10-07T00:53:32.850Z,0
2018-10-07T00:54:33.617Z,0
2018-10-07T00:55:34.333Z,0
2018-10-07T00:56:35.070Z,0
2018-10-07T00:57:35.801Z,0
2018-10-07T00:58:36.570Z,0
2018-10-07T00:59:37.296Z,0
2018-10-07T01:00:38.026Z,0
2018-10-07T01:01:38.774Z,0
2018-10-07T01:02:39.503Z,0
2018-10-07T01:03:40.476Z,0
2018-10-07T01:04:41.188Z,0
2018-10-07T01:05:41.900Z,0
2018-10-07T01:06:42.622Z,0
2018-10-07T01:07:43.337Z,0
2018-10-07T01:08:44.070Z,0
2018-10-07T01:09:45.097Z,0
2018-10-07T01:10:45.815Z,0
2018-10-07T01:11:46.537Z,0
2018-10-07T01:12:47.503Z,0
2018-10-07T01:13:48.482Z,0
2018-10-07T01:14:49.200Z,0
2018-10-07T01:15:49.919Z,0
2018-10-07T01:16:50.641Z,0
2018-10-07T01:17:51.357Z,0
2018-10-07T01:18:52.091Z,0
2018-10-07T01:19:52.814Z,0
2018-10-07T01:20:53.528Z,0
2018-10-07T01:21:54.274Z,0
2018-10-07T01:22:54.998Z,0
2018-10-07T01:23:55.737Z,0
2018-10-07T01:24:56.468Z,0
2018-10-07T01:25:57.447Z,0
2018-10-07T01:26:58.173Z,0
2018-10-07T01:27:58.897Z,0
2018-10-07T01:28:59.879Z,0
2018-10-07T01:30:00.651Z,0
2018-10-07T01:31:01.364Z,0
2018-10-07T01:32:02.340Z,0
2018-10-07T01:33:03.062Z,0
2018-10-07T01:34:03.783Z,0
2018-10-07T01:35:04.609Z,0
2018-10-07T01:36:05.283Z,0
2018-10-07T01:37:06.017Z,0
2018-10-07T01:38:06.730Z,0
2018-10-07T01:39:07.462Z,0
2018-10-07T01:40:08.193Z,0
2018-10-07T01:41:08.914Z,0
2018-10-07T01:42:09.650Z,0
2018-10-07T01:43:10.375Z,0
2018-10-07T01:44:11.104Z,0
2018-10-07T01:45:11.818Z,0
2018-10-07T01:46:12.543Z,0
2018-10-07T01:47:13.264Z,0
2018-10-07T01:48:13.990Z,0
2018-10-07T01:49:14.724Z,0
2018-10-07T01:50:15.438Z,0
2018-10-07T01:51:16.190Z,0
2018-10-07T01:52:16.907Z,0
2018-10-07T01:53:17.634Z,0
2018-10-07T01:54:18.353Z,0
2018-10-07T01:55:19.080Z,0
2018-10-07T01:56:19.804Z,0
2018-10-07T01:57:20.527Z,0
2018-10-07T01:58:21.264Z,0
2018-10-07T01:59:22.020Z,0
2018-10-07T02:00:22.696Z,0
2018-10-07T02:01:23.410Z,0
2018-10-07T02:02:24.145Z,0
2018-10-07T02:03:24.878Z,0
2018-10-07T02:04:25.598Z,0
2018-10-07T02:05:26.569Z,0
2018-10-07T02:06:27.306Z,0
2018-10-07T02:07:28.028Z,0
2018-10-07T02:08:28.745Z,0
2018-10-07T02:09:29.487Z,0
2018-10-07T02:10:30.253Z,0
2018-10-07T02:11:30.986Z,0
2018-10-07T02:12:31.724Z,0
2018-10-07T02:13:32.449Z,0
2018-10-07T02:14:33.183Z,0
2018-10-07T02:15:33.963Z,0
2018-10-07T02:16:34.685Z,0
2018-10-07T02:17:35.409Z,0
2018-10-07T02:18:36.139Z,0
2018-10-07T02:19:36.866Z,0
2018-10-07T02:20:37.589Z,0
2018-10-07T02:21:38.366Z,0
2018-10-07T02:22:39.081Z,0
2018-10-07T02:23:39.815Z,0
2018-10-07T02:24:40.533Z,0
2018-10-07T02:25:41.265Z,0
2018-10-07T02:26:41.995Z,0
2018-10-07T02:27:42.714Z,0
2018-10-07T02:28:43.434Z,0
2018-10-07T02:29:44.412Z,0
2018-10-07T02:30:45.139Z,0
2018-10-07T02:31:45.867Z,0
2018-10-07T02:32:46.592Z,0
2018-10-07T02:33:47.316Z,0
2018-10-07T02:34:48.042Z,0
2018-10-07T02:35:48.772Z,0
2018-10-07T02:36:49.488Z,0
2018-10-07T02:37:50.265Z,0
2018-10-07T02:38:50.991Z,0
2018-10-07T02:39:51.706Z,0
2018-10-07T02:40:52.677Z,0
2018-10-07T02:41:53.402Z,0
2018-10-07T02:42:54.162Z,0
2018-10-07T02:43:54.893Z,0
2018-10-07T02:44:55.602Z,0
2018-10-07T02:45:56.339Z,0
2018-10-07T02:46:57.048Z,0
2018-10-07T02:47:57.806Z,0
2018-10-07T02:48:58.520Z,0
2018-10-07T02:49:59.301Z,0
2018-10-07T02:51:00.014Z,0
2018-10-07T02:52:00.733Z,0
2018-10-07T02:53:01.476Z,0
2018-10-07T02:54:02.181Z,0
2018-10-07T02:55:02.962Z,0
2018-10-07T02:56:03.690Z,0
2018-10-07T02:57:04.411Z,0
2018-10-07T02:58:05.143Z,0
2018-10-07T02:59:05.864Z,0
2018-10-07T03:00:06.582Z,0
2018-10-07T03:01:07.307Z,0
2018-10-07T03:02:08.020Z,0
2018-10-07T03:03:08.762Z,0
2018-10-07T03:04:09.488Z,0
2018-10-07T03:05:10.255Z,0
2018-10-07T03:06:10.994Z,0
2018-10-07T03:07:11.715Z,0
2018-10-07T03:08:12.435Z,0
2018-10-07T03:09:13.167Z,0
2018-10-07T03:10:13.886Z,0
2018-10-07T03:11:14.621Z,0
2018-10-07T03:12:15.345Z,0
2018-10-07T03:13:16.055Z,0
2018-10-07T03:14:16.835Z,0
2018-10-07T03:15:17.527Z,0
2018-10-07T03:16:19.057Z,0
2018-10-07T03:17:19.834Z,0
2018-10-07T03:18:20.555Z,0
2018-10-07T03:19:21.528Z,0
2018-10-07T03:20:22.238Z,0
2018-10-07T03:21:22.965Z,0
2018-10-07T03:22:23.684Z,0
2018-10-07T03:23:24.409Z,0
2018-10-07T03:24:25.136Z,0
2018-10-07T03:25:25.856Z,0
2018-10-07T03:26:26.834Z,0
2018-10-07T03:27:27.543Z,0
2018-10-07T03:28:28.266Z,0
2018-10-07T03:29:29.059Z,0
2018-10-07T03:30:29.719Z,0
2018-10-07T03:31:30.458Z,0
2018-10-07T03:32:31.168Z,0
2018-10-07T03:33:31.898Z,0
2018-10-07T03:34:32.867Z,0
2018-10-07T03:35:33.586Z,0
2018-10-07T03:36:34.316Z,0
2018-10-07T03:37:35.030Z,0
2018-10-07T03:38:35.753Z,0
2018-10-07T03:39:36.479Z,0
2018-10-07T03:40:37.205Z,0
2018-10-07T03:41:37.928Z,0
2018-10-07T03:42:38.644Z,0
2018-10-07T03:43:39.357Z,0
2018-10-07T03:44:40.078Z,0
2018-10-07T03:45:40.807Z,0
2018-10-07T03:46:41.529Z,0
2018-10-07T03:47:42.247Z,0
2018-10-07T03:48:42.969Z,0
2018-10-07T03:49:43.700Z,0
2018-10-07T03:50:44.405Z,0
2018-10-07T03:51:45.179Z,0
2018-10-07T03:52:45.898Z,0
2018-10-07T03:53:46.613Z,0
2018-10-07T03:54:47.572Z,0
2018-10-07T03:55:48.296Z,0
2018-10-07T03:56:49.012Z,0
2018-10-07T03:57:49.739Z,0
2018-10-07T03:58:50.455Z,0
2018-10-07T03:59:51.174Z,0
2018-10-07T04:00:51.893Z,0
2018-10-07T04:01:52.664Z,0
2018-10-07T04:02:53.372Z,0
2018-10-07T04:03:54.094Z,0
2018-10-07T04:04:54.811Z,0
2018-10-07T04:05:55.541Z,0
2018-10-07T04:06:56.300Z,0
2018-10-07T04:07:57.021Z,0
2018-10-07T04:08:57.734Z,0
2018-10-07T04:09:58.445Z,0
2018-10-07T04:10:59.178Z,0
2018-10-07T04:11:59.885Z,0
2018-10-07T04:13:00.602Z,0
2018-10-07T04:14:01.333Z,0
2018-10-07T04:15:02.048Z,0
2018-10-07T04:16:02.779Z,0
2018-10-07T04:17:03.501Z,0
2018-10-07T04:18:04.218Z,0
2018-10-07T04:19:05.240Z,0
2018-10-07T04:20:05.964Z,0
2018-10-07T04:21:06.678Z,0
2018-10-07T04:22:07.394Z,0
2018-10-07T04:23:08.353Z,0
2018-10-07T04:24:09.134Z,0
2018-10-07T04:25:09.854Z,0
2018-10-07T04:26:10.578Z,0
2018-10-07T04:27:11.302Z,0
2018-10-07T04:28:12.016Z,0
2018-10-07T04:29:12.743Z,0
2018-10-07T04:30:13.463Z,0
2018-10-07T04:31:14.184Z,0
2018-10-07T04:32:14.906Z,0
2018-10-07T04:33:15.614Z,0
2018-10-07T04:34:16.332Z,0
2018-10-07T04:35:17.293Z,0
2018-10-07T04:36:18.021Z,0
2018-10-07T04:37:18.744Z,0
2018-10-07T04:38:19.465Z,0
2018-10-07T04:39:20.173Z,0
2018-10-07T04:40:20.893Z,0
2018-10-07T04:41:21.651Z,0
2018-10-07T04:42:22.369Z,0
2018-10-07T04:43:23.083Z,0
2018-10-07T04:44:23.812Z,0
2018-10-07T04:45:24.532Z,0
2018-10-07T04:46:25.621Z,0
2018-10-07T04:47:26.269Z,0
2018-10-07T04:48:26.997Z,0
2018-10-07T04:49:27.707Z,0
2018-10-07T04:50:28.419Z,0
2018-10-07T04:51:29.146Z,0
2018-10-07T04:52:29.859Z,0
2018-10-07T04:53:30.822Z,0
2018-10-07T04:54:31.551Z,0
2018-10-07T04:55:32.262Z,0
2018-10-07T04:56:32.973Z,0
2018-10-07T04:57:33.695Z,0
2018-10-07T04:58:34.419Z,0
2018-10-07T04:59:35.148Z,0
2018-10-07T05:00:35.858Z,0
2018-10-07T05:01:36.573Z,0
2018-10-07T05:02:37.551Z,0
2018-10-07T05:03:38.264Z,0
2018-10-07T05:04:38.981Z,0
2018-10-07T05:05:39.698Z,0
2018-10-07T05:06:40.420Z,0
2018-10-07T05:07:41.194Z,0
2018-10-07T05:08:41.916Z,4
2018-10-07T05:09:42.631Z,4
2018-10-07T05:10:43.344Z,4
2018-10-07T05:11:44.065Z,4
2018-10-07T05:12:44.855Z,4
2018-10-07T05:13:45.488Z,4
2018-10-07T05:14:46.203Z,8
2018-10-07T05:15:46.912Z,8
2018-10-07T05:16:47.633Z,12
2018-10-07T05:17:48.360Z,16
2018-10-07T05:18:49.083Z,20
2018-10-07T05:19:49.794Z,24
2018-10-07T05:20:50.523Z,24
2018-10-07T05:21:51.215Z,32
2018-10-07T05:22:51.933Z,36
2018-10-07T05:23:52.651Z,40
2018-10-07T05:24:53.364Z,44
2018-10-07T05:25:54.081Z,56
2018-10-07T05:26:54.792Z,56
2018-10-07T05:27:55.515Z,64
2018-10-07T05:28:56.224Z,72
2018-10-07T05:29:56.944Z,80
2018-10-07T05:30:57.668Z,92
2018-10-07T05:31:58.383Z,104
2018-10-07T05:32:59.098Z,112
2018-10-07T05:33:59.862Z,128
2018-10-07T05:35:00.569Z,144
2018-10-07T05:36:01.297Z,152
2018-10-07T05:37:02.008Z,156
2018-10-07T05:38:02.726Z,172
2018-10-07T05:39:03.503Z,196
2018-10-07T05:40:04.228Z,208
2018-10-07T05:41:04.947Z,204
2018-10-07T05:42:05.673Z,216
2018-10-07T05:43:06.397Z,264
2018-10-07T05:44:07.179Z,272
2018-10-07T05:45:07.896Z,296
2018-10-07T05:46:08.618Z,316
2018-10-07T05:47:09.599Z,328
2018-10-07T05:48:10.314Z,376
2018-10-07T05:49:11.035Z,400
2018-10-07T05:50:12.017Z,484
2018-10-07T05:51:12.741Z,544
2018-10-07T05:52:13.456Z,588
2018-10-07T05:53:14.177Z,600
2018-10-07T05:54:14.896Z,560
2018-10-07T05:55:15.621Z,552
2018-10-07T05:56:16.343Z,564
2018-10-07T05:57:17.325Z,548
2018-10-07T05:58:18.082Z,600
2018-10-07T05:59:19.050Z,616
2018-10-07T06:00:19.782Z,800
2018-10-07T06:01:20.506Z,924
2018-10-07T06:02:21.478Z,1064
2018-10-07T06:03:22.227Z,1092
2018-10-07T06:04:22.950Z,1244
2018-10-07T06:05:23.673Z,1312
2018-10-07T06:06:24.396Z,1508
2018-10-07T06:07:25.129Z,1796
2018-10-07T06:08:25.846Z,1780
2018-10-07T06:09:26.582Z,1784
2018-10-07T06:10:27.305Z,1916
2018-10-07T06:11:28.022Z,1924
2018-10-07T06:12:28.761Z,2024
2018-10-07T06:13:29.494Z,1928
2018-10-07T06:14:30.212Z,2136
2018-10-07T06:15:30.934Z,1968
2018-10-07T06:16:31.653Z,1892
2018-10-07T06:17:32.619Z,1928
2018-10-07T06:18:33.343Z,1892
2018-10-07T06:19:34.066Z,1936
2018-10-07T06:20:34.787Z,1924
2018-10-07T06:21:35.575Z,1904
2018-10-07T06:22:36.233Z,1948
2018-10-07T06:23:37.215Z,1944
2018-10-07T06:24:37.937Z,2044
2018-10-07T06:25:38.722Z,2016
2018-10-07T06:26:39.449Z,1880
2018-10-07T06:27:40.169Z,1980
2018-10-07T06:28:40.884Z,2188
2018-10-07T06:29:41.671Z,2412
2018-10-07T06:30:42.372Z,2516
2018-10-07T06:31:43.097Z,2768
2018-10-07T06:32:43.830Z,2888
2018-10-07T06:33:44.560Z,3024
2018-10-07T06:34:45.298Z,3160
2018-10-07T06:35:46.023Z,3428
2018-10-07T06:36:46.767Z,3844
2018-10-07T06:37:47.491Z,3924
2018-10-07T06:38:48.269Z,3744
2018-10-07T06:39:48.993Z,3968
2018-10-07T06:40:49.651Z,4312
2018-10-07T06:41:50.369Z,4720
2018-10-07T06:42:51.092Z,5096
2018-10-07T06:43:51.833Z,6100
2018-10-07T06:44:52.556Z,6116
2018-10-07T06:45:53.313Z,6472
2018-10-07T06:46:54.014Z,6444
2018-10-07T06:47:54.756Z,6716
2018-10-07T06:48:55.484Z,6980
2018-10-07T06:49:56.229Z,7204
2018-10-07T06:50:56.958Z,7588
2018-10-07T06:51:57.672Z,8152
2018-10-07T06:52:58.382Z,8208
2018-10-07T06:53:59.103Z,8376
2018-10-07T06:54:59.822Z,8352
2018-10-07T06:56:00.537Z,8472
2018-10-07T06:57:01.279Z,8576
2018-10-07T06:58:02.009Z,8832
2018-10-07T06:59:02.738Z,8876
2018-10-07T07:00:03.457Z,8836
2018-10-07T07:01:04.186Z,8916
2018-10-07T07:02:04.910Z,9088
2018-10-07T07:03:05.631Z,9144
2018-10-07T07:04:06.349Z,9484
2018-10-07T07:05:07.060Z,9732
2018-10-07T07:06:07.787Z,9876
2018-10-07T07:07:08.752Z,10116
2018-10-07T07:08:09.471Z,10076
2018-10-07T07:09:10.202Z,9956
2018-10-07T07:10:10.927Z,9828
2018-10-07T07:11:11.649Z,9848
2018-10-07T07:12:12.372Z,10028
2018-10-07T07:13:13.093Z,10068
2018-10-07T07:14:13.811Z,10004
2018-10-07T07:15:14.532Z,9784
2018-10-07T07:16:15.263Z,9268
2018-10-07T07:17:15.999Z,8336
2018-10-07T07:18:16.713Z,7260
2018-10-07T07:19:17.431Z,6384
2018-10-07T07:20:18.431Z,5880
2018-10-07T07:21:19.175Z,5664
2018-10-07T07:22:19.891Z,5628
2018-10-07T07:23:20.618Z,5640
2018-10-07T07:24:21.347Z,5684
2018-10-07T07:25:22.055Z,5740
2018-10-07T07:26:22.795Z,5760
2018-10-07T07:27:23.512Z,5932
2018-10-07T07:28:24.248Z,6156
2018-10-07T07:29:24.959Z,6456
2018-10-07T07:30:25.691Z,6628
2018-10-07T07:31:26.741Z,6600
2018-10-07T07:32:27.388Z,6484
2018-10-07T07:33:28.116Z,6384
2018-10-07T07:34:28.839Z,6392
2018-10-07T07:35:29.566Z,6420
2018-10-07T07:36:30.302Z,6436
2018-10-07T07:37:31.029Z,6332
2018-10-07T07:38:31.748Z,6244
2018-10-07T07:39:32.476Z,6120
2018-10-07T07:40:33.446Z,6012
2018-10-07T07:41:34.165Z,5888
2018-10-07T07:42:34.890Z,5848
2018-10-07T07:43:35.624Z,5828
2018-10-07T07:44:36.348Z,5876
2018-10-07T07:45:37.078Z,5892
2018-10-07T07:46:37.795Z,5912
2018-10-07T07:47:38.511Z,5720
2018-10-07T07:48:39.252Z,5880
2018-10-07T07:49:39.969Z,5856
2018-10-07T07:50:40.697Z,5888
2018-10-07T07:51:41.425Z,5952
2018-10-07T07:52:42.152Z,5980
2018-10-07T07:53:42.885Z,6044
2018-10-07T07:54:43.607Z,6104
2018-10-07T07:55:44.331Z,6184
2018-10-07T07:56:45.062Z,6252
2018-10-07T07:57:45.799Z,6224
2018-10-07T07:58:46.524Z,6400
2018-10-07T07:59:47.248Z,6468
2018-10-07T08:00:47.972Z,6560
2018-10-07T08:01:48.706Z,6588
2018-10-07T08:02:49.474Z,6744
2018-10-07T08:03:50.200Z,6840
2018-10-07T08:04:50.918Z,6932
2018-10-07T08:05:51.886Z,7080
2018-10-07T08:06:52.606Z,7232
2018-10-07T08:07:53.338Z,8148
2018-10-07T08:08:54.074Z,14624
2018-10-07T08:09:54.778Z,22336
2018-10-07T08:10:55.494Z,25792
2018-10-07T08:11:56.240Z,25472
2018-10-07T08:12:56.969Z,23488
2018-10-07T08:13:57.694Z,24064
2018-10-07T08:14:58.416Z,26464
2018-10-07T08:15:59.137Z,26368
2018-10-07T08:16:59.858Z,25120
2018-10-07T08:18:00.590Z,25600
2018-10-07T08:19:01.325Z,27296
2018-10-07T08:20:02.061Z,27424
2018-10-07T08:21:02.842Z,26432
2018-10-07T08:22:03.561Z,26592
2018-10-07T08:23:04.302Z,26848
2018-10-07T08:24:05.029Z,26400
2018-10-07T08:25:06.007Z,28064
2018-10-07T08:26:06.747Z,30944
2018-10-07T08:27:07.470Z,32160
2018-10-07T08:28:08.211Z,28992
2018-10-07T08:29:08.932Z,28352
2018-10-07T08:30:09.652Z,34080
2018-10-07T08:31:10.381Z,30240
2018-10-07T08:32:11.105Z,26464
2018-10-07T08:33:11.844Z,25952
2018-10-07T08:34:12.563Z,26720
2018-10-07T08:35:13.601Z,27296
2018-10-07T08:36:14.273Z,18592
2018-10-07T08:37:15.050Z,26464
2018-10-07T08:38:15.788Z,25088
2018-10-07T08:39:16.518Z,31776
2018-10-07T08:40:17.245Z,34656
2018-10-07T08:41:17.970Z,22656
2018-10-07T08:42:18.768Z,25984
2018-10-07T08:43:19.492Z,31296
2018-10-07T08:44:20.488Z,36224
2018-10-07T08:45:21.222Z,35616
2018-10-07T08:46:21.944Z,31488
2018-10-07T08:47:22.727Z,28864
2018-10-07T08:48:23.459Z,33376
2018-10-07T08:49:24.187Z,37152
2018-10-07T08:50:24.905Z,34112
2018-10-07T08:51:25.641Z,31616
2018-10-07T08:52:26.633Z,30496
2018-10-07T08:53:27.352Z,30848
2018-10-07T08:54:28.081Z,35520
2018-10-07T08:55:28.816Z,39136
2018-10-07T08:56:29.594Z,37888
2018-10-07T08:57:30.269Z,35456
2018-10-07T08:58:30.994Z,36896
2018-10-07T08:59:31.981Z,39200
2018-10-07T09:00:32.969Z,39200
2018-10-07T09:01:33.682Z,38976
2018-10-07T09:02:34.921Z,39232
2018-10-07T09:03:35.659Z,39040
2018-10-07T09:04:36.381Z,37760
2018-10-07T09:05:37.104Z,38400
2018-10-07T09:06:37.837Z,39360
2018-10-07T09:07:38.614Z,38560
2018-10-07T09:08:39.385Z,36736
2018-10-07T09:09:40.093Z,35904
2018-10-07T09:10:41.071Z,36320
2018-10-07T09:11:41.810Z,38976
2018-10-07T09:12:42.542Z,42272
2018-10-07T09:13:43.527Z,42400
2018-10-07T09:14:44.280Z,40640
2018-10-07T09:15:44.990Z,39840
2018-10-07T09:16:45.707Z,41056
2018-10-07T09:17:46.434Z,42880
2018-10-07T09:18:47.183Z,43808
2018-10-07T09:19:47.966Z,43904
2018-10-07T09:20:48.713Z,44096
2018-10-07T09:21:49.426Z,43360
2018-10-07T09:22:50.159Z,41216
2018-10-07T09:23:50.883Z,40832
2018-10-07T09:24:51.925Z,42624
2018-10-07T09:25:52.654Z,44512
2018-10-07T09:26:53.525Z,44096
2018-10-07T09:27:54.146Z,44288
2018-10-07T09:28:54.876Z,44480
2018-10-07T09:29:55.653Z,44064
2018-10-07T09:30:56.379Z,41792
2018-10-07T09:31:57.105Z,38976
2018-10-07T09:32:57.925Z,38432
2018-10-07T09:33:58.568Z,39520
2018-10-07T09:34:59.294Z,38752
2018-10-07T09:36:00.035Z,36032
2018-10-07T09:37:00.770Z,35200
2018-10-07T09:38:01.497Z,38304
2018-10-07T09:39:02.224Z,40960
2018-10-07T09:40:02.948Z,39584
2018-10-07T09:41:03.736Z,37088
2018-10-07T09:42:04.460Z,37056
2018-10-07T09:43:05.199Z,38528
2018-10-07T09:44:05.923Z,40960
2018-10-07T09:45:06.662Z,42336
2018-10-07T09:46:07.439Z,43840
2018-10-07T09:47:08.220Z,46720
2018-10-07T09:48:08.906Z,45696
2018-10-07T09:49:09.637Z,42304
2018-10-07T09:50:10.373Z,40672
2018-10-07T09:51:11.149Z,40032
2018-10-07T09:52:11.899Z,39488
2018-10-07T09:53:12.609Z,41696
2018-10-07T09:54:13.346Z,46176
2018-10-07T09:55:14.065Z,49408
2018-10-07T09:56:14.817Z,46784
2018-10-07T09:57:15.530Z,40000
2018-10-07T09:58:16.266Z,35104
2018-10-07T09:59:17.009Z,36544
2018-10-07T10:00:17.741Z,38688
2018-10-07T10:01:18.487Z,38176
2018-10-07T10:02:19.202Z,38144
2018-10-07T10:03:19.924Z,41472
2018-10-07T10:04:20.792Z,44480
2018-10-07T10:05:21.403Z,41408
2018-10-07T10:06:22.145Z,36960
2018-10-07T10:07:22.918Z,36192
2018-10-07T10:08:23.649Z,38752
2018-10-07T10:09:24.372Z,41792
2018-10-07T10:10:25.106Z,44448
2018-10-07T10:11:25.954Z,46560
2018-10-07T10:12:26.557Z,48576
2018-10-07T10:13:27.293Z,49376
2018-10-07T10:14:28.074Z,44448
2018-10-07T10:15:28.814Z,28416
2018-10-07T10:16:29.554Z,23552
2018-10-07T10:17:30.311Z,32384
2018-10-07T10:18:31.036Z,19456
2018-10-07T10:19:32.036Z,21888
2018-10-07T10:20:32.743Z,23776
2018-10-07T10:21:33.472Z,25120
2018-10-07T10:22:34.213Z,22112
2018-10-07T10:23:34.937Z,34720
2018-10-07T10:24:35.718Z,23584
2018-10-07T10:25:36.463Z,18336
2018-10-07T10:26:37.199Z,23008
2018-10-07T10:27:37.921Z,20896
2018-10-07T10:28:38.645Z,32992
2018-10-07T10:29:39.367Z,29312
2018-10-07T10:30:40.165Z,40736
2018-10-07T10:31:40.894Z,36800
2018-10-07T10:32:41.620Z,34912
2018-10-07T10:33:42.347Z,42464
2018-10-07T10:34:43.094Z,25632
2018-10-07T10:35:44.081Z,46304
2018-10-07T10:36:44.856Z,50336
2018-10-07T10:37:45.533Z,52384
2018-10-07T10:38:46.281Z,55104
2018-10-07T10:39:47.043Z,57600
2018-10-07T10:40:47.731Z,56640
2018-10-07T10:41:48.485Z,54016
2018-10-07T10:42:49.204Z,52352
2018-10-07T10:43:49.934Z,50784
2018-10-07T10:44:50.911Z,48704
2018-10-07T10:45:51.650Z,48160
2018-10-07T10:46:52.380Z,49600
2018-10-07T10:47:53.363Z,51744
2018-10-07T10:48:54.101Z,53920
2018-10-07T10:49:55.079Z,52704
2018-10-07T10:50:55.810Z,22592
2018-10-07T10:51:56.538Z,48992
2018-10-07T10:52:57.510Z,45472
2018-10-07T10:53:58.479Z,19296
2018-10-07T10:54:59.252Z,12752
2018-10-07T10:55:59.951Z,25152
2018-10-07T10:57:00.728Z,13092
2018-10-07T10:58:01.456Z,22048
2018-10-07T10:59:02.445Z,20832
2018-10-07T11:00:03.183Z,16680
2018-10-07T11:01:04.015Z,25600
2018-10-07T11:02:04.650Z,16760
2018-10-07T11:03:05.385Z,31744
2018-10-07T11:04:06.125Z,14768
2018-10-07T11:05:06.849Z,21120
2018-10-07T11:06:07.578Z,9956
2018-10-07T11:07:08.307Z,9380
2018-10-07T11:08:09.032Z,10540
2018-10-07T11:09:10.099Z,9760
2018-10-07T11:10:10.802Z,9856
2018-10-07T11:11:11.536Z,9672
2018-10-07T11:12:12.522Z,10348
2018-10-07T11:13:13.247Z,10072
2018-10-07T11:14:13.972Z,12964
2018-10-07T11:15:14.720Z,14684
2018-10-07T11:16:15.435Z,18528
2018-10-07T11:17:16.166Z,24512
2018-10-07T11:18:16.887Z,31040
2018-10-07T11:19:17.660Z,35136
2018-10-07T11:20:18.363Z,20928
2018-10-07T11:21:19.097Z,19424
2018-10-07T11:22:19.825Z,17328
2018-10-07T11:23:20.552Z,20928
2018-10-07T11:24:21.284Z,20352
2018-10-07T11:25:22.262Z,21312
2018-10-07T11:26:22.988Z,21792
2018-10-07T11:27:23.972Z,23360
2018-10-07T11:28:24.715Z,37696
2018-10-07T11:29:25.450Z,14584
2018-10-07T11:30:26.180Z,12376
2018-10-07T11:31:26.911Z,16668
2018-10-07T11:32:27.644Z,14012
2018-10-07T11:33:28.369Z,19040
2018-10-07T11:34:29.100Z,13136
2018-10-07T11:35:29.829Z,14724
2018-10-07T11:36:30.559Z,14824
2018-10-07T11:37:31.283Z,11152
2018-10-07T11:38:32.022Z,11792
2018-10-07T11:39:32.998Z,15596
2018-10-07T11:40:33.726Z,19520
2018-10-07T11:41:34.443Z,15896
2018-10-07T11:42:35.197Z,16884
2018-10-07T11:43:35.918Z,9760
2018-10-07T11:44:36.655Z,8872
2018-10-07T11:45:37.381Z,9464
2018-10-07T11:46:39.307Z,8648
2018-10-07T11:47:41.266Z,9108
2018-10-07T11:48:42.858Z,8864
2018-10-07T11:49:43.763Z,7068
2018-10-07T11:50:45.036Z,7052
2018-10-07T11:51:46.443Z,7152
2018-10-07T11:52:47.375Z,7276
2018-10-07T11:53:48.125Z,7844
2018-10-07T11:54:49.947Z,8100
2018-10-07T11:55:52.577Z,12840
2018-10-07T11:56:53.609Z,12932
2018-10-07T11:57:54.366Z,8492
2018-10-07T11:58:55.115Z,11452
2018-10-07T11:59:55.848Z,10908
2018-10-07T12:00:56.585Z,10192
2018-10-07T12:01:57.325Z,12664
2018-10-07T12:02:58.045Z,16292
2018-10-07T12:03:58.778Z,11528
2018-10-07T12:04:59.516Z,9152
2018-10-07T12:06:00.520Z,20512
2018-10-07T12:07:01.272Z,17952
2018-10-07T12:08:02.345Z,12692
2018-10-07T12:09:03.065Z,10192
2018-10-07T12:10:03.827Z,9488
2018-10-07T12:11:04.584Z,7680
2018-10-07T12:12:05.580Z,7732
2018-10-07T12:13:06.296Z,8624
2018-10-07T12:14:07.011Z,8396
2018-10-07T12:15:07.806Z,7904
2018-10-07T12:16:09.246Z,9192
2018-10-07T12:17:09.968Z,10612
2018-10-07T12:18:10.723Z,11392
2018-10-07T12:19:11.510Z,9784
2018-10-07T12:20:12.276Z,10356
2018-10-07T12:21:13.009Z,10572
2018-10-07T12:22:13.746Z,14448
2018-10-07T12:23:14.487Z,23488
2018-10-07T12:24:15.283Z,22784
2018-10-07T12:25:16.030Z,25760
2018-10-07T12:26:17.040Z,39552
2018-10-07T12:27:18.084Z,45248
2018-10-07T12:28:18.807Z,47200
2018-10-07T12:29:19.592Z,47648
2018-10-07T12:30:20.370Z,45248
2018-10-07T12:31:21.126Z,32224
2018-10-07T12:32:22.117Z,35808
2018-10-07T12:33:23.172Z,30976
2018-10-07T12:34:24.170Z,32448
2018-10-07T12:35:24.906Z,16976
2018-10-07T12:36:25.650Z,19232
2018-10-07T12:37:26.417Z,20000
2018-10-07T12:38:27.173Z,26688
2018-10-07T12:39:27.992Z,17984
2018-10-07T12:40:28.726Z,8912
2018-10-07T12:41:29.452Z,7564
2018-10-07T12:42:30.315Z,7616
2018-10-07T12:43:30.981Z,6984
2018-10-07T12:44:31.957Z,6596
2018-10-07T12:45:32.728Z,6356
2018-10-07T12:46:33.818Z,6184
2018-10-07T12:47:34.759Z,5784
2018-10-07T12:48:35.497Z,5604
2018-10-07T12:49:36.271Z,5808
2018-10-07T12:50:37.005Z,5480
2018-10-07T12:51:37.792Z,5532
2018-10-07T12:52:38.512Z,6140
2018-10-07T12:53:39.488Z,6684
2018-10-07T12:54:40.246Z,6396
2018-10-07T12:55:40.978Z,6816
2018-10-07T12:56:41.752Z,5028
2018-10-07T12:57:42.487Z,5012
2018-10-07T12:58:43.239Z,5336
2018-10-07T12:59:43.973Z,5040
2018-10-07T13:00:44.725Z,5028
2018-10-07T13:01:45.983Z,5368
2018-10-07T13:02:46.757Z,5668
2018-10-07T13:04:48.946Z,6044
2018-10-07T13:05:49.723Z,6960
2018-10-07T13:06:50.503Z,8464
2018-10-07T13:07:52.342Z,10072
2018-10-07T13:08:53.354Z,8484
2018-10-07T13:09:54.084Z,7196
2018-10-07T13:10:55.107Z,6480
2018-10-07T13:11:56.463Z,6028
2018-10-07T13:12:57.465Z,5752
2018-10-07T13:13:58.232Z,5972
2018-10-07T13:14:58.960Z,6716
2018-10-07T13:15:59.699Z,6724
2018-10-07T13:17:00.419Z,6792
2018-10-07T13:18:01.151Z,7072
2018-10-07T13:19:02.144Z,8976
2018-10-07T13:20:03.170Z,9192
2018-10-07T13:21:03.894Z,6768
2018-10-07T13:22:04.778Z,6252
2018-10-07T13:23:05.914Z,5892
2018-10-07T13:24:06.783Z,5772
2018-10-07T13:25:07.558Z,5676
2018-10-07T13:26:08.339Z,5536
2018-10-07T13:27:09.339Z,5560
2018-10-07T13:28:10.204Z,5416
2018-10-07T13:29:10.995Z,5372
2018-10-07T13:30:11.731Z,5328
2018-10-07T13:31:13.558Z,5264
2018-10-07T13:32:14.479Z,5260
2018-10-07T13:33:15.249Z,5272
2018-10-07T13:34:16.025Z,5320
2018-10-07T13:35:17.325Z,5380
2018-10-07T13:36:18.137Z,5472
2018-10-07T13:37:18.863Z,5732
2018-10-07T13:38:19.588Z,5756
2018-10-07T13:39:20.316Z,5820
2018-10-07T13:40:21.038Z,5904
2018-10-07T13:41:21.784Z,6060
2018-10-07T13:42:22.519Z,6112
2018-10-07T13:43:23.255Z,6116
2018-10-07T13:44:23.990Z,6312
2018-10-07T13:45:24.725Z,6320
2018-10-07T13:46:25.453Z,6500
2018-10-07T13:47:26.414Z,7236
2018-10-07T13:48:27.186Z,6716
2018-10-07T13:49:27.930Z,7068
2018-10-07T13:50:28.710Z,7404
2018-10-07T13:51:29.432Z,7400
2018-10-07T13:52:30.162Z,7620
2018-10-07T13:53:30.956Z,7664
2018-10-07T13:54:31.635Z,8268
2018-10-07T13:55:32.412Z,9404